Time;durP1;ratioP1;P1;durP2;ratioP2;P2;SDS_P1;SDS_P2;PMS_P1;PMS_P2;Temp;Humidity;BMP_temperature;BMP_pressure;BME280_temperature;BME280_humidity;BME280_pressure;Samples;Min_cycle;Max_cycle;Signal;HPM_P1;HPM_P2
2023/05/29 00:00:33;;;;;;;11.70;0.30;;;11.00;99.90;;;;;;5053615;28;20037;-76
2023/05/29 00:02:59;;;;;;;8.23;0.40;;;11.00;99.90;;;;;;5053559;28;20075;-76
2023/05/29 00:05:25;;;;;;;7.78;0.85;;;10.90;99.90;;;;;;5035936;28;20028;-76
2023/05/29 00:07:50;;;;;;;7.03;0.30;;;10.90;99.90;;;;;;5053756;28;20032;-75
2023/05/29 00:10:16;;;;;;;16.85;1.42;;;10.90;99.90;;;;;;5053794;28;20024;-76
2023/05/29 00:12:42;;;;;;;11.23;0.70;;;10.80;99.90;;;;;;5035801;28;20060;-76
2023/05/29 00:15:09;;;;;;;16.05;1.60;;;10.80;99.90;;;;;;5053626;28;20029;-77
2023/05/29 00:17:35;;;;;;;8.57;0.50;;;10.80;99.90;;;;;;5053718;28;20060;-76
2023/05/29 00:20:05;;;;;;;8.73;0.50;;;10.80;99.90;;;;;;5053496;28;20029;-76
2023/05/29 00:22:31;;;;;;;12.25;0.88;;;10.80;99.90;;;;;;5053996;28;20025;-76
2023/05/29 00:24:56;;;;;;;8.63;0.40;;;11.40;99.90;;;;;;5036067;28;20040;-76
2023/05/29 00:27:22;;;;;;;9.63;1.08;;;10.70;99.90;;;;;;5053681;28;20036;-76
2023/05/29 00:29:47;;;;;;;17.27;0.98;;;10.60;99.90;;;;;;5053333;28;20100;-76
2023/05/29 00:32:13;;;;;;;13.02;1.15;;;10.70;99.90;;;;;;5053182;28;20025;-76
2023/05/29 00:34:39;;;;;;;12.05;0.55;;;10.60;99.90;;;;;;5053002;28;20023;-76
2023/05/29 00:37:04;;;;;;;12.40;0.93;;;10.60;99.90;;;;;;5053479;28;20017;-76
2023/05/29 00:39:30;;;;;;;10.20;0.77;;;10.60;99.90;;;;;;5053202;28;20025;-76
2023/05/29 00:41:56;;;;;;;15.15;0.52;;;10.50;99.90;;;;;;5035421;28;20025;-76
2023/05/29 00:44:22;;;;;;;9.50;0.70;;;10.50;99.90;;;;;;5053249;28;20027;-76
2023/05/29 00:46:49;;;;;;;6.70;0.35;;;10.50;99.90;;;;;;5053300;28;20029;-76
2023/05/29 00:49:16;;;;;;;12.35;1.10;;;10.50;99.90;;;;;;5054530;28;20029;-76
2023/05/29 00:51:43;;;;;;;12.38;0.77;;;10.50;99.90;;;;;;5053848;28;20096;-76
2023/05/29 00:54:11;;;;;;;16.33;1.35;;;10.40;99.90;;;;;;5035695;28;20014;-76
2023/05/29 00:56:39;;;;;;;15.18;1.08;;;10.40;99.90;;;;;;5053694;28;20025;-76
2023/05/29 00:59:05;;;;;;;8.38;0.57;;;10.40;99.90;;;;;;5035517;28;20017;-76
2023/05/29 01:01:32;;;;;;;7.55;0.75;;;10.70;99.90;;;;;;5054861;28;20108;-76
2023/05/29 01:04:00;;;;;;;15.70;0.88;;;10.30;99.90;;;;;;5039507;28;20496;-76
2023/05/29 01:06:26;;;;;;;16.45;0.47;;;10.30;99.90;;;;;;5038796;28;20110;-76
2023/05/29 01:08:52;;;;;;;16.63;1.25;;;10.20;99.90;;;;;;5056932;28;20071;-76
2023/05/29 01:11:21;;;;;;;9.50;0.77;;;11.40;99.90;;;;;;5039202;28;20022;-76
2023/05/29 01:13:49;;;;;;;4.47;0.52;;;11.90;99.90;;;;;;5039151;28;20025;-76
2023/05/29 01:16:30;;;;;;;21.30;1.30;;;10.10;99.90;;;;;;5057504;28;20124;-76
2023/05/29 01:19:16;;;;;;;10.80;0.45;;;10.10;99.90;;;;;;5056788;28;20037;-76
2023/05/29 01:22:08;;;;;;;10.27;0.75;;;10.10;99.90;;;;;;5056840;28;20365;-76
2023/05/29 01:24:36;;;;;;;5.50;0.52;;;10.00;99.90;;;;;;5057506;28;20408;-76
2023/05/29 01:27:05;;;;;;;9.27;0.40;;;10.00;99.90;;;;;;5057468;28;20086;-76
2023/05/29 01:29:34;;;;;;;;;;;10.00;99.90;;;;;;5039257;28;20049;-76
2023/05/29 01:32:01;;;;;;;4.10;0.65;;;11.40;99.90;;;;;;5056925;28;19908;-76
2023/05/29 01:34:28;;;;;;;9.00;0.57;;;10.00;99.90;;;;;;5056652;28;20070;-76
2023/05/29 01:36:53;;;;;;;12.27;0.47;;;9.90;99.90;;;;;;5056703;28;20379;-76
2023/05/29 01:39:21;;;;;;;10.77;1.65;;;9.80;99.90;;;;;;5038829;28;20029;-76
2023/05/29 01:41:47;;;;;;;6.25;0.80;;;9.80;99.90;;;;;;5056310;28;20025;-76
2023/05/29 01:44:13;;;;;;;7.60;0.50;;;9.80;99.90;;;;;;5056881;28;20082;-76
2023/05/29 01:46:41;;;;;;;11.18;0.73;;;9.80;99.90;;;;;;5056726;28;20036;-76
2023/05/29 01:49:07;;;;;;;6.22;0.65;;;9.80;99.90;;;;;;5038384;28;20020;-76
2023/05/29 01:51:33;;;;;;;13.43;0.50;;;9.70;99.90;;;;;;5038735;28;20108;-76
2023/05/29 01:54:00;;;;;;;8.00;0.57;;;9.70;99.90;;;;;;5038489;28;20483;-76
2023/05/29 01:56:27;;;;;;;8.30;0.57;;;9.70;99.90;;;;;;5056520;28;20590;-76
2023/05/29 01:58:55;;;;;;;6.22;0.63;;;9.70;99.90;;;;;;5038667;28;20487;-76
2023/05/29 02:01:22;;;;;;;16.35;1.88;;;9.60;99.90;;;;;;5038553;28;20029;-76
2023/05/29 02:03:48;;;;;;;9.93;0.98;;;9.60;99.90;;;;;;5056524;28;20032;-76
2023/05/29 02:06:14;;;;;;;8.07;0.30;;;9.60;99.90;;;;;;5039234;28;20029;-76
2023/05/29 02:08:39;;;;;;;8.82;0.10;;;9.50;99.90;;;;;;5056461;28;20087;-76
2023/05/29 02:11:05;;;;;;;11.00;0.32;;;9.50;99.90;;;;;;5038350;28;20029;-76
2023/05/29 02:13:31;;;;;;;14.85;0.98;;;9.50;99.90;;;;;;5055331;28;20100;-76
2023/05/29 02:15:57;;;;;;;14.77;1.25;;;9.50;99.90;;;;;;5037611;28;20044;-76
2023/05/29 02:18:23;;;;;;;7.93;0.20;;;9.50;99.90;;;;;;5056005;28;20029;-76
2023/05/29 02:20:49;;;;;;;11.65;0.45;;;9.50;99.90;;;;;;5038469;28;20029;-76
2023/05/29 02:23:15;;;;;;;12.02;0.65;;;;;;;;;;5038715;28;20032;-76
2023/05/29 02:25:42;;;;;;;12.10;1.13;;;9.40;99.90;;;;;;5037879;28;20033;-76
2023/05/29 02:28:08;;;;;;;6.25;0.95;;;9.40;99.90;;;;;;5038235;28;20032;-76
2023/05/29 02:30:34;;;;;;;14.15;0.93;;;10.00;99.90;;;;;;5038515;28;20028;-76
2023/05/29 02:33:00;;;;;;;11.35;0.10;;;9.40;99.90;;;;;;5038907;28;20044;-76
2023/05/29 02:35:25;;;;;;;8.55;1.00;;;10.50;99.90;;;;;;5038049;28;20476;-76
2023/05/29 02:37:52;;;;;;;10.38;0.80;;;9.40;99.90;;;;;;5055682;28;20053;-75
2023/05/29 02:40:18;;;;;;;11.05;1.17;;;9.40;99.90;;;;;;5038405;28;20024;-76
2023/05/29 02:42:44;;;;;;;5.78;0.17;;;9.40;99.90;;;;;;5038161;28;20055;-76
2023/05/29 02:45:10;;;;;;;6.05;0.30;;;9.30;99.90;;;;;;5055942;28;20522;-76
2023/05/29 02:47:37;;;;;;;10.80;0.90;;;9.30;99.90;;;;;;5056052;28;20017;-76
2023/05/29 02:50:04;;;;;;;5.68;0.00;;;9.20;99.90;;;;;;5037678;28;20047;-76
2023/05/29 02:52:30;;;;;;;19.42;0.90;;;9.20;99.90;;;;;;5055502;28;20365;-76
2023/05/29 02:54:56;;;;;;;10.18;0.45;;;9.20;99.90;;;;;;5038062;28;20480;-76
2023/05/29 02:57:22;;;;;;;17.15;0.95;;;;;;;;;;5037367;28;20021;-76
2023/05/29 02:59:48;;;;;;;6.80;0.30;;;9.10;99.90;;;;;;5037784;28;20037;-76
2023/05/29 03:02:14;;;;;;;11.20;0.20;;;9.10;99.90;;;;;;5055574;28;20403;-76
2023/05/29 03:04:40;;;;;;;9.57;0.20;;;9.10;99.90;;;;;;5055546;28;20099;-76
2023/05/29 03:07:06;;;;;;;8.57;0.90;;;9.10;99.90;;;;;;5055451;28;20044;-76
2023/05/29 03:09:32;;;;;;;10.10;1.10;;;9.10;99.90;;;;;;5037861;28;20013;-76
2023/05/29 03:11:57;;;;;;;5.57;0.32;;;9.10;99.90;;;;;;5037754;28;20406;-76
2023/05/29 03:14:23;;;;;;;9.35;0.52;;;9.10;99.90;;;;;;5037250;28;20056;-76
2023/05/29 03:16:50;;;;;;;13.13;1.45;;;9.10;99.90;;;;;;5055615;28;20121;-76
2023/05/29 03:19:15;;;;;;;8.40;0.73;;;9.00;99.90;;;;;;5055211;28;20065;-76
2023/05/29 03:21:41;;;;;;;14.20;0.70;;;9.00;99.90;;;;;;5037589;28;20032;-76
2023/05/29 03:24:07;;;;;;;11.95;1.25;;;9.00;99.90;;;;;;5055226;28;20032;-76
2023/05/29 03:26:32;;;;;;;9.60;1.10;;;9.00;99.90;;;;;;5053292;28;20029;-76
2023/05/29 03:28:58;;;;;;;13.63;0.80;;;;;;;;;;5054676;28;20489;-76
2023/05/29 03:31:24;;;;;;;6.57;0.40;;;9.00;99.90;;;;;;5054984;28;20096;-76
2023/05/29 03:33:49;;;;;;;12.77;0.77;;;9.00;99.90;;;;;;5055492;28;20480;-76
2023/05/29 03:36:18;;;;;;;9.00;1.13;;;8.90;99.90;;;;;;5055354;28;20025;-76
2023/05/29 03:38:44;;;;;;;9.50;0.32;;;8.80;99.90;;;;;;5037404;28;20025;-76
2023/05/29 03:41:10;;;;;;;13.90;1.60;;;8.90;99.90;;;;;;5055093;28;20094;-76
2023/05/29 03:43:36;;;;;;;7.05;0.40;;;8.80;99.90;;;;;;5055111;28;20029;-76
2023/05/29 03:46:02;;;;;;;14.25;0.95;;;8.80;99.90;;;;;;5055062;28;20028;-76
2023/05/29 03:48:27;;;;;;;8.45;0.88;;;8.80;99.90;;;;;;5054518;28;20071;-76
2023/05/29 03:50:53;;;;;;;5.60;0.80;;;;;;;;;;5055047;28;20017;-76
2023/05/29 03:53:19;;;;;;;12.65;0.32;;;8.80;99.90;;;;;;5054574;28;20108;-76
2023/05/29 03:55:44;;;;;;;7.57;0.20;;;8.80;99.90;;;;;;5036571;28;20085;-76
2023/05/29 03:58:12;;;;;;;7.53;0.10;;;8.70;99.90;;;;;;5054840;28;20041;-76
2023/05/29 04:00:38;;;;;;;8.98;0.85;;;;;;;;;;5054665;28;20017;-76
2023/05/29 04:03:03;;;;;;;11.68;0.55;;;8.80;99.90;;;;;;5036893;28;20167;-76
2023/05/29 04:05:29;;;;;;;4.07;0.15;;;8.80;99.90;;;;;;5054318;28;20082;-76
2023/05/29 04:07:56;;;;;;;8.82;0.40;;;8.80;99.90;;;;;;5054800;28;20033;-76
2023/05/29 04:10:22;;;;;;;11.05;1.20;;;8.80;99.90;;;;;;5054875;28;20021;-76
2023/05/29 04:12:47;;;;;;;13.93;0.75;;;8.90;99.90;;;;;;5036779;28;20028;-76
2023/05/29 04:15:13;;;;;;;11.25;1.75;;;8.90;99.90;;;;;;5036166;28;20476;-76
2023/05/29 04:17:38;;;;;;;7.82;0.30;;;9.00;99.90;;;;;;5054795;28;20025;-76
2023/05/29 04:20:08;;;;;;;6.70;0.10;;;8.90;99.90;;;;;;5054558;28;20025;-76
2023/05/29 04:22:35;;;;;;;5.75;0.50;;;9.00;99.90;;;;;;5054777;28;20021;-76
2023/05/29 04:25:03;;;;;;;2.83;0.32;;;9.00;99.90;;;;;;5036764;28;20060;-76
2023/05/29 04:27:29;;;;;;;12.43;0.40;;;;;;;;;;5054095;28;20432;-77
2023/05/29 04:29:55;;;;;;;4.05;0.40;;;9.10;99.90;;;;;;5053934;28;20059;-76
2023/05/29 04:32:21;;;;;;;6.72;0.50;;;9.10;99.90;;;;;;5054798;28;20013;-76
2023/05/29 04:34:47;;;;;;;9.18;0.70;;;9.20;99.90;;;;;;5037193;28;20021;-76
2023/05/29 04:37:20;;;;;;;13.00;0.43;;;9.20;99.90;;;;;;5038883;28;20021;-75
2023/05/29 04:39:45;;;;;;;11.07;2.28;;;9.20;99.90;;;;;;5057929;28;20027;-76
2023/05/29 04:42:12;;;;;;;10.73;0.57;;;9.20;99.90;;;;;;5040720;28;20029;-76
2023/05/29 04:44:38;;;;;;;8.73;0.90;;;9.40;99.90;;;;;;5058296;28;20103;-76
2023/05/29 04:47:04;;;;;;;7.32;1.13;;;9.50;99.90;;;;;;5058382;28;20037;-75
2023/05/29 04:49:30;;;;;;;7.25;0.13;;;9.50;99.90;;;;;;5057758;28;20083;-76
2023/05/29 04:51:55;;;;;;;7.80;0.40;;;9.60;99.90;;;;;;5058207;28;20494;-76
2023/05/29 04:54:22;;;;;;;9.13;0.73;;;9.60;99.90;;;;;;5058777;28;20096;-76
2023/05/29 04:56:48;;;;;;;6.97;0.43;;;9.70;99.90;;;;;;5040161;28;20048;-76
2023/05/29 04:59:14;;;;;;;11.25;0.55;;;9.80;99.90;;;;;;5057656;28;20029;-76
2023/05/29 05:01:43;;;;;;;8.88;0.60;;;9.80;99.90;;;;;;5039920;28;20146;-76
2023/05/29 05:04:08;;;;;;;;;;;9.90;99.90;;;;;;5058266;28;20024;-74
2023/05/29 05:06:34;;;;;;;3.72;0.38;;;9.90;99.90;;;;;;5039443;28;20364;-74
2023/05/29 05:09:00;;;;;;;9.63;0.40;;;10.00;99.90;;;;;;5057217;28;20032;-74
2023/05/29 05:11:26;;;;;;;4.50;0.20;;;10.10;99.90;;;;;;5056997;28;20017;-74
2023/05/29 05:13:51;;;;;;;9.70;0.20;;;10.10;99.90;;;;;;5056478;28;20491;-74
2023/05/29 05:16:18;;;;;;;10.65;0.50;;;10.20;99.90;;;;;;5038797;28;20457;-74
2023/05/29 05:18:44;;;;;;;8.13;0.90;;;10.40;99.90;;;;;;5056692;28;20492;-74
2023/05/29 05:21:10;;;;;;;11.23;0.75;;;10.50;99.90;;;;;;5056642;28;20021;-74
2023/05/29 05:23:36;;;;;;;10.85;0.63;;;10.60;99.90;;;;;;5038840;28;20091;-74
2023/05/29 05:26:02;;;;;;;7.25;1.20;;;10.70;99.90;;;;;;5056642;28;20027;-74
2023/05/29 05:28:27;;;;;;;11.70;1.38;;;10.80;99.90;;;;;;5038361;28;20120;-74
2023/05/29 05:30:53;;;;;;;7.70;0.20;;;10.80;99.90;;;;;;5038334;28;20025;-74
2023/05/29 05:33:18;;;;;;;10.15;1.02;;;10.90;99.90;;;;;;5038327;28;20032;-74
2023/05/29 05:35:44;;;;;;;9.60;0.52;;;11.10;99.90;;;;;;5038482;28;20067;-74
2023/05/29 05:38:10;;;;;;;11.50;1.08;;;11.10;99.90;;;;;;5055949;28;20021;-73
2023/05/29 05:40:35;;;;;;;9.07;0.30;;;11.40;99.90;;;;;;5056227;28;20471;-74
2023/05/29 05:43:01;;;;;;;8.13;0.55;;;11.30;99.90;;;;;;5038368;28;20013;-73
2023/05/29 05:45:27;;;;;;;9.32;0.45;;;11.40;99.90;;;;;;5055737;28;20021;-73
2023/05/29 05:47:53;;;;;;;5.57;0.43;;;;;;;;;;5054387;28;20103;-74
2023/05/29 05:50:18;;;;;;;8.45;0.65;;;11.50;99.90;;;;;;5055349;28;20075;-74
2023/05/29 05:52:45;;;;;;;6.78;0.98;;;11.80;99.90;;;;;;5055250;28;20025;-73
2023/05/29 05:55:10;;;;;;;8.82;0.40;;;11.70;99.90;;;;;;5055362;28;20055;-73
2023/05/29 05:57:36;;;;;;;7.72;0.20;;;;;;;;;;5037582;28;20044;-73
2023/05/29 06:00:11;;;;;;;7.90;0.73;;;11.90;99.90;;;;;;5055038;28;20059;-72
2023/05/29 06:02:37;;;;;;;8.48;0.20;;;11.90;99.90;;;;;;5055372;28;20076;-73
2023/05/29 06:05:06;;;;;;;26.35;2.42;;;12.00;99.90;;;;;;5055132;28;20032;-73
2023/05/29 06:07:32;;;;;;;5.78;0.30;;;12.20;99.90;;;;;;5054889;28;20025;-74
2023/05/29 06:09:58;;;;;;;8.07;0.95;;;12.20;99.90;;;;;;5054887;28;20079;-73
2023/05/29 06:12:24;;;;;;;6.28;0.30;;;12.20;99.90;;;;;;5037044;28;20021;-73
2023/05/29 06:14:50;;;;;;;16.20;0.30;;;12.30;99.90;;;;;;5054864;28;20017;-73
2023/05/29 06:17:16;;;;;;;3.92;0.45;;;12.30;99.90;;;;;;5055185;28;20060;-73
2023/05/29 06:19:41;;;;;;;4.30;0.30;;;12.40;99.90;;;;;;5054644;28;20511;-74
2023/05/29 06:22:07;;;;;;;11.13;1.38;;;12.70;99.90;;;;;;5054745;28;20403;-72
2023/05/29 06:24:32;;;;;;;9.18;0.93;;;12.40;99.90;;;;;;5036866;28;20396;-72
2023/05/29 06:26:58;;;;;;;11.45;0.68;;;12.80;99.90;;;;;;5036906;28;20476;-73
2023/05/29 06:29:23;;;;;;;7.15;0.93;;;12.70;99.90;;;;;;5054385;28;20443;-73
2023/05/29 06:31:49;;;;;;;8.10;0.70;;;12.70;99.90;;;;;;5055028;28;20021;-73
2023/05/29 06:34:14;;;;;;;5.57;0.20;;;13.80;99.90;;;;;;5054455;28;20025;-74
2023/05/29 06:36:41;;;;;;;9.60;0.20;;;12.90;99.90;;;;;;5036508;28;20083;-73
2023/05/29 06:39:07;;;;;;;6.65;1.02;;;13.00;99.90;;;;;;5054340;28;20021;-73
2023/05/29 06:41:33;;;;;;;3.60;0.20;;;13.00;99.90;;;;;;5036495;28;20476;-73
2023/05/29 06:43:58;;;;;;;12.93;0.90;;;13.10;99.90;;;;;;5054161;28;20055;-73
2023/05/29 06:46:24;;;;;;;3.97;0.30;;;13.20;99.90;;;;;;5054138;28;20070;-73
2023/05/29 06:48:49;;;;;;;3.88;0.40;;;13.30;99.90;;;;;;5036035;28;20032;-74
2023/05/29 06:51:16;;;;;;;11.32;0.85;;;13.30;99.90;;;;;;5036000;28;20131;-73
2023/05/29 06:53:42;;;;;;;6.82;0.55;;;13.40;99.90;;;;;;5054071;28;20492;-73
2023/05/29 06:56:07;;;;;;;9.82;0.95;;;13.50;99.90;;;;;;5036171;28;20064;-73
2023/05/29 06:58:33;;;;;;;5.65;0.55;;;13.60;99.90;;;;;;5036036;28;20063;-74
2023/05/29 07:01:00;;;;;;;7.22;0.73;;;13.60;99.90;;;;;;5035958;28;20627;-73
2023/05/29 07:03:26;;;;;;;12.73;0.75;;;13.70;99.90;;;;;;5036019;28;20394;-73
2023/05/29 07:05:51;;;;;;;6.32;0.10;;;13.80;99.90;;;;;;5053808;28;20028;-73
2023/05/29 07:08:17;;;;;;;5.38;0.45;;;13.90;99.90;;;;;;5053584;28;20092;-74
2023/05/29 07:10:43;;;;;;;10.50;0.40;;;13.90;99.90;;;;;;5053755;28;20021;-73
2023/05/29 07:13:08;;;;;;;6.55;0.22;;;14.10;99.90;;;;;;5035870;28;20021;-73
2023/05/29 07:15:34;;;;;;;10.02;0.60;;;14.00;99.90;;;;;;5053615;28;20033;-73
2023/05/29 07:18:00;;;;;;;10.77;0.90;;;14.10;99.90;;;;;;5035507;28;20112;-73
2023/05/29 07:20:26;;;;;;;9.60;0.40;;;14.10;99.90;;;;;;5053694;28;20032;-73
2023/05/29 07:22:51;;;;;;;7.28;0.95;;;14.10;99.90;;;;;;5054114;28;20028;-73
2023/05/29 07:25:17;;;;;;;6.32;0.70;;;14.20;99.90;;;;;;5053892;28;20074;-73
2023/05/29 07:27:42;;;;;;;4.22;0.47;;;14.30;99.90;;;;;;5053235;28;20025;-74
2023/05/29 07:30:08;;;;;;;5.97;0.80;;;14.30;99.90;;;;;;5053291;28;20025;-73
2023/05/29 07:32:34;;;;;;;3.28;0.30;;;14.20;99.90;;;;;;5053894;28;20095;-73
2023/05/29 07:35:00;;;;;;;4.13;0.10;;;14.20;99.90;;;;;;5053936;28;20020;-73
2023/05/29 07:37:25;;;;;;;20.40;0.32;;;14.30;99.90;;;;;;5053268;28;20027;-73
2023/05/29 07:39:51;;;;;;;6.85;0.10;;;14.30;99.90;;;;;;5053215;28;20053;-73
2023/05/29 07:42:16;;;;;;;10.00;0.13;;;15.70;99.90;;;;;;5053402;28;20088;-73
2023/05/29 07:44:42;;;;;;;6.20;0.20;;;14.80;99.90;;;;;;5053380;28;20017;-73
2023/05/29 07:47:08;;;;;;;6.55;0.10;;;15.00;99.90;;;;;;5053186;28;20029;-73
2023/05/29 07:49:35;;;;;;;3.80;0.63;;;15.00;99.90;;;;;;5035157;28;20404;-73
2023/05/29 07:52:01;;;;;;;2.45;0.15;;;15.20;99.90;;;;;;5053265;28;20025;-73
2023/05/29 07:54:27;;;;;;;8.27;0.15;;;15.40;99.90;;;;;;5035305;28;20016;-73
2023/05/29 07:56:53;;;;;;;7.20;0.10;;;15.40;99.90;;;;;;5035294;28;20032;-74
2023/05/29 07:59:18;;;;;;;7.47;0.10;;;15.60;99.90;;;;;;5035171;28;20017;-73
2023/05/29 08:01:44;;;;;;;7.00;0.22;;;15.70;99.90;;;;;;5052934;28;20029;-74
2023/05/29 08:04:10;;;;;;;4.32;0.10;;;15.80;99.90;;;;;;5035414;28;20024;-74
2023/05/29 08:06:36;;;;;;;15.30;0.47;;;15.70;99.90;;;;;;5053420;28;20104;-73
2023/05/29 08:09:05;;;;;;;8.68;0.40;;;15.70;99.90;;;;;;5052741;28;20113;-73
2023/05/29 08:11:31;;;;;;;4.55;0.47;;;;;;;;;;5054379;28;20092;-74
2023/05/29 08:13:58;;;;;;;7.60;0.82;;;15.80;99.90;;;;;;5039262;28;20055;-73
2023/05/29 08:16:23;;;;;;;7.80;0.47;;;15.80;99.90;;;;;;5057012;28;20025;-73
2023/05/29 08:18:49;;;;;;;6.47;0.93;;;15.80;99.90;;;;;;5056986;28;20136;-73
2023/05/29 08:21:15;;;;;;;7.78;0.57;;;15.80;99.90;;;;;;5056992;28;20057;-73
2023/05/29 08:23:40;;;;;;;4.03;0.43;;;15.90;99.90;;;;;;5056884;28;20103;-73
2023/05/29 08:26:06;;;;;;;6.45;0.30;;;16.20;99.90;;;;;;5038919;28;20021;-73
2023/05/29 08:28:31;;;;;;;4.90;0.20;;;16.40;99.50;;;;;;5056679;28;20511;-73
2023/05/29 08:30:57;;;;;;;5.38;0.32;;;16.50;99.70;;;;;;5038780;28;20013;-73
2023/05/29 08:33:23;;;;;;;5.75;0.35;;;16.40;99.60;;;;;;5056716;28;20503;-73
2023/05/29 08:35:48;;;;;;;6.20;0.32;;;16.40;99.90;;;;;;5056918;28;20053;-74
2023/05/29 08:38:14;;;;;;;8.82;0.57;;;16.60;99.70;;;;;;5038635;28;20108;-74
2023/05/29 08:40:40;;;;;;;4.00;0.65;;;16.70;99.70;;;;;;5056526;28;20118;-73
2023/05/29 08:43:10;;;;;;;3.70;0.00;;;16.70;98.70;;;;;;5056567;28;20431;-74
2023/05/29 08:45:38;;;;;;;3.30;0.38;;;16.70;98.50;;;;;;5056787;28;20049;-74
2023/05/29 08:48:05;;;;;;;11.85;0.57;;;17.00;98.10;;;;;;5056214;28;20021;-75
2023/05/29 08:50:32;;;;;;;4.22;0.10;;;16.90;98.40;;;;;;5038471;28;20451;-74
2023/05/29 08:52:58;;;;;;;4.50;0.20;;;16.90;97.10;;;;;;5056480;28;20075;-75
2023/05/29 08:55:24;;;;;;;4.53;0.45;;;17.30;97.90;;;;;;5056407;28;20021;-74
2023/05/29 08:57:50;;;;;;;3.08;0.40;;;16.90;97.30;;;;;;5056533;28;20548;-75
2023/05/29 09:00:18;;;;;;;6.93;0.52;;;16.90;96.30;;;;;;5056162;28;20559;-75
2023/05/29 09:02:45;;;;;;;4.97;0.28;;;16.80;97.60;;;;;;5038629;28;20486;-74
2023/05/29 09:05:12;;;;;;;6.55;0.70;;;16.80;96.10;;;;;;5056356;28;20027;-76
2023/05/29 09:07:39;;;;;;;5.05;0.52;;;16.90;95.20;;;;;;5056533;28;20052;-75
2023/05/29 09:10:11;;;;;;;5.65;0.65;;;16.90;95.70;;;;;;5037890;28;20033;-75
2023/05/29 09:12:37;;;;;;;4.40;0.47;;;17.10;96.00;;;;;;5056020;28;20025;-75
2023/05/29 09:15:07;;;;;;;4.35;0.40;;;17.70;96.20;;;;;;5055993;28;20473;-75
2023/05/29 09:17:33;;;;;;;3.13;0.13;;;17.50;95.80;;;;;;5055994;28;20040;-75
2023/05/29 09:20:00;;;;;;;4.53;0.20;;;17.70;95.70;;;;;;5037833;28;20029;-75
2023/05/29 09:22:28;;;;;;;5.45;0.20;;;17.50;94.20;;;;;;5054927;28;20037;-75
2023/05/29 09:24:54;;;;;;;5.28;0.50;;;17.50;94.80;;;;;;5055366;28;20057;-75
2023/05/29 09:27:20;;;;;;;6.22;0.55;;;17.60;95.00;;;;;;5037881;28;20060;-74
2023/05/29 09:29:46;;;;;;;4.03;0.28;;;17.70;95.20;;;;;;5055513;28;20021;-74
2023/05/29 09:32:12;;;;;;;4.63;0.15;;;17.70;94.80;;;;;;5056327;28;20376;-74
2023/05/29 09:34:38;;;;;;;5.03;0.20;;;17.80;93.00;;;;;;5055452;28;20028;-74
2023/05/29 09:37:09;;;;;;;6.05;0.90;;;17.80;93.60;;;;;;5055846;28;20032;-74
2023/05/29 09:39:53;;;;;;;6.60;0.10;;;17.70;93.90;;;;;;5037594;28;20032;-74
2023/05/29 09:42:19;;;;;;;5.78;0.35;;;;;;;;;;5037620;28;20032;-74
2023/05/29 09:44:49;;;;;;;3.22;0.10;;;17.80;92.70;;;;;;5037499;28;20032;-74
2023/05/29 09:47:17;;;;;;;3.30;0.20;;;17.80;91.40;;;;;;5037475;28;20124;-74
2023/05/29 09:49:45;;;;;;;6.72;1.05;;;17.90;90.80;;;;;;5055211;28;20369;-74
2023/05/29 09:52:15;;;;;;;9.25;0.47;;;18.00;90.40;;;;;;5055123;28;20488;-75
2023/05/29 09:54:47;;;;;;;4.07;0.55;;;18.00;90.70;;;;;;5055197;28;20495;-74
2023/05/29 09:57:16;;;;;;;8.23;1.08;;;18.00;91.50;;;;;;5037335;28;20029;-74
2023/05/29 09:59:48;;;;;;;4.28;0.20;;;18.30;92.00;;;;;;5055062;28;20484;-74
2023/05/29 10:02:15;;;;;;;5.47;0.32;;;18.70;91.50;;;;;;5037258;28;20033;-74
2023/05/29 10:04:41;;;;;;;4.13;0.20;;;18.80;91.50;;;;;;5037218;28;20024;-74
2023/05/29 10:07:28;;;;;;;5.35;0.50;;;19.10;90.50;;;;;;5055031;28;20108;-74
2023/05/29 10:10:01;;;;;;;5.35;0.40;;;19.10;90.20;;;;;;5037086;28;20021;-74
2023/05/29 10:12:28;;;;;;;4.30;0.28;;;19.10;90.40;;;;;;5054959;28;20021;-74
2023/05/29 10:14:58;;;;;;;3.40;0.40;;;18.80;88.90;;;;;;5054900;28;20384;-74
2023/05/29 10:17:32;;;;;;;5.25;0.35;;;18.50;89.20;;;;;;5055205;28;20427;-74
2023/05/29 10:20:00;;;;;;;5.10;0.17;;;18.50;90.30;;;;;;5054703;28;20061;-74
2023/05/29 10:22:27;;;;;;;1.55;0.10;;;18.50;90.00;;;;;;5054704;28;20027;-73
2023/05/29 10:24:55;;;;;;;5.97;0.15;;;18.60;91.10;;;;;;5054643;28;20021;-74
2023/05/29 10:27:24;;;;;;;2.72;0.00;;;18.90;90.60;;;;;;5053092;28;20032;-74
2023/05/29 10:29:57;;;;;;;4.47;0.20;;;19.00;86.30;;;;;;5044881;28;20041;-74
2023/05/29 10:32:29;;;;;;;4.35;0.57;;;19.20;86.60;;;;;;5073650;28;20541;-73
2023/05/29 10:35:27;;;;;;;4.25;0.20;;;19.20;87.90;;;;;;5055311;28;20029;-74
2023/05/29 10:38:09;;;;;;;6.05;0.00;;;18.90;84.90;;;;;;5073939;28;20025;-74
2023/05/29 10:40:37;;;;;;;8.68;0.70;;;18.90;86.50;;;;;;5054257;28;20480;-74
2023/05/29 10:43:04;;;;;;;5.13;0.28;;;19.00;88.00;;;;;;5074135;28;20097;-73
2023/05/29 10:45:35;;;;;;;6.43;0.30;;;;;;;;;;5074862;28;20377;-73
2023/05/29 10:48:08;;;;;;;7.40;0.65;;;19.60;85.50;;;;;;5056142;28;20024;-74
2023/05/29 10:50:45;;;;;;;11.00;0.30;;;19.60;85.80;;;;;;5056115;28;20031;-74
2023/05/29 10:53:16;;;;;;;5.93;0.20;;;19.90;83.20;;;;;;5074084;28;20024;-73
2023/05/29 10:55:42;;;;;;;5.63;0.43;;;20.00;81.80;;;;;;5074032;28;20021;-73
2023/05/29 10:58:18;;;;;;;1.77;0.15;;;20.20;79.10;;;;;;5074057;28;20512;-74
2023/05/29 11:00:48;;;;;;;4.45;0.20;;;20.20;78.70;;;;;;5073991;28;20024;-74
2023/05/29 11:03:27;;;;;;;4.65;0.30;;;20.40;81.30;;;;;;5073929;28;20021;-74
2023/05/29 11:05:56;;;;;;;8.48;0.43;;;20.50;82.70;;;;;;5056031;28;20105;-74
2023/05/29 11:08:33;;;;;;;4.82;0.10;;;20.80;75.40;;;;;;5073687;28;20414;-74
2023/05/29 11:10:59;;;;;;;5.90;0.43;;;20.70;75.40;;;;;;5074851;28;20056;-74
2023/05/29 11:13:34;;;;;;;3.45;0.25;;;20.80;74.80;;;;;;5074266;28;20063;-74
2023/05/29 11:16:25;;;;;;;3.20;0.00;;;20.50;73.10;;;;;;5073767;28;20100;-74
2023/05/29 11:18:51;;;;;;;8.27;0.22;;;20.60;72.70;;;;;;5055715;28;20407;-74
2023/05/29 11:21:34;;;;;;;7.32;0.30;;;20.70;74.50;;;;;;5073738;28;20027;-75
2023/05/29 11:24:07;;;;;;;3.08;0.32;;;21.00;74.70;;;;;;5074566;28;20032;-75
2023/05/29 11:26:34;;;;;;;6.18;0.10;;;21.20;70.70;;;;;;5073629;28;20031;-74
2023/05/29 11:29:05;;;;;;;4.32;0.60;;;21.40;72.80;;;;;;5055611;28;20113;-74
2023/05/29 11:31:34;;;;;;;5.53;0.47;;;21.30;71.20;;;;;;5073685;28;20020;-74
2023/05/29 11:34:03;;;;;;;8.25;1.02;;;21.60;72.50;;;;;;5073437;28;20016;-75
2023/05/29 11:36:31;;;;;;;4.43;0.20;;;21.70;70.20;;;;;;5055438;28;20111;-75
2023/05/29 11:38:56;;;;;;;4.07;0.10;;;21.80;69.60;;;;;;5073795;28;20048;-74
2023/05/29 11:41:22;;;;;;;8.30;0.35;;;21.80;70.30;;;;;;5073516;28;20391;-74
2023/05/29 11:43:58;;;;;;;13.93;1.27;;;22.10;71.90;;;;;;5055488;28;20030;-74
2023/05/29 11:46:26;;;;;;;2.63;0.20;;;22.10;72.30;;;;;;5072576;28;20029;-74
2023/05/29 11:48:51;;;;;;;10.00;0.20;;;22.60;67.80;;;;;;5073094;28;20035;-74
2023/05/29 11:51:17;;;;;;;3.13;0.50;;;22.70;68.00;;;;;;5073433;28;20442;-75
2023/05/29 11:53:43;;;;;;;2.75;0.17;;;22.50;65.50;;;;;;5055423;28;20115;-75
2023/05/29 11:56:10;;;;;;;4.90;0.50;;;22.60;65.00;;;;;;5073269;28;20025;-75
2023/05/29 11:58:40;;;;;;;4.75;0.55;;;22.70;65.20;;;;;;5055271;28;20153;-75
2023/05/29 12:01:07;;;;;;;5.57;0.57;;;22.70;67.10;;;;;;5055374;28;20021;-75
2023/05/29 12:03:43;;;;;;;5.22;0.20;;;22.70;66.20;;;;;;5073252;28;20024;-75
2023/05/29 12:06:10;;;;;;;7.65;0.75;;;22.80;67.50;;;;;;5073188;28;20033;-75
2023/05/29 12:08:36;;;;;;;1.48;0.28;;;23.30;67.20;;;;;;5055097;28;20017;-75
2023/05/29 12:11:01;;;;;;;8.23;1.15;;;23.40;67.40;;;;;;5072944;28;20033;-75
2023/05/29 12:13:28;;;;;;;5.53;0.10;;;23.40;65.50;;;;;;5054993;28;20043;-75
2023/05/29 12:16:02;;;;;;;2.55;0.52;;;23.70;64.60;;;;;;5054798;28;20489;-75
2023/05/29 12:18:29;;;;;;;5.38;0.43;;;23.80;62.80;;;;;;5072711;28;20581;-75
2023/05/29 12:21:02;;;;;;;3.92;0.28;;;23.70;62.40;;;;;;5053028;28;20032;-75
2023/05/29 12:23:29;;;;;;;4.82;0.32;;;23.30;62.50;;;;;;5073025;28;20464;-75
2023/05/29 12:25:55;;;;;;;13.68;1.30;;;23.10;64.90;;;;;;5073008;28;20024;-75
2023/05/29 12:28:22;;;;;;;6.97;0.52;;;23.20;65.00;;;;;;5073144;28;20033;-75
2023/05/29 12:30:49;;;;;;;6.20;0.43;;;23.30;66.70;;;;;;5073000;28;20090;-75
2023/05/29 12:33:34;;;;;;;7.30;0.50;;;23.70;64.10;;;;;;5072864;28;20017;-75
2023/05/29 12:36:04;;;;;;;4.47;0.35;;;23.70;63.60;;;;;;5072952;28;20025;-75
2023/05/29 12:38:30;;;;;;;6.65;0.40;;;23.80;64.70;;;;;;5072914;28;20369;-75
2023/05/29 12:40:56;;;;;;;5.35;0.32;;;23.90;65.50;;;;;;5072799;28;20020;-75
2023/05/29 12:43:22;;;;;;;3.38;0.47;;;23.80;64.80;;;;;;5072855;28;20024;-75
2023/05/29 12:45:57;;;;;;;5.30;0.60;;;23.90;62.40;;;;;;5072834;28;20048;-75
2023/05/29 12:48:27;;;;;;;8.05;0.52;;;24.00;62.10;;;;;;5072636;28;20078;-75
2023/05/29 12:50:52;;;;;;;8.40;1.23;;;24.10;63.20;;;;;;5054744;28;20111;-75